Map

Track Data

SID SEASON NUMBER BASIN SUBBASIN NAME ISO_TIME NATURE LAT LON WMO_WIND WMO_PRES WMO_AGENCY TRACK_TYPE DIST2LAND LANDFALL IFLAG USA_AGENCY USA_ATCF_ID USA_LAT USA_LON USA_RECORD USA_STATUS USA_WIND USA_PRES USA_SSHS USA_R34_NE USA_R34_SE USA_R34_SW USA_R34_NW USA_R50_NE USA_R50_SE USA_R50_SW USA_R50_NW USA_R64_NE USA_R64_SE USA_R64_SW USA_R64_NW USA_POCI USA_ROCI USA_RMW USA_EYE TOKYO_LAT TOKYO_LON TOKYO_GRADE TOKYO_WIND TOKYO_PRES TOKYO_R50_DIR TOKYO_R50_LONG TOKYO_R50_SHORT TOKYO_R30_DIR TOKYO_R30_LONG TOKYO_R30_SHORT TOKYO_LAND CMA_LAT CMA_LON CMA_CAT CMA_WIND CMA_PRES HKO_LAT HKO_LON HKO_CAT HKO_WIND HKO_PRES NEWDELHI_LAT NEWDELHI_LON NEWDELHI_GRADE NEWDELHI_WIND NEWDELHI_PRES NEWDELHI_CI NEWDELHI_DP NEWDELHI_POCI REUNION_LAT REUNION_LON REUNION_TYPE REUNION_WIND REUNION_PRES REUNION_TNUM REUNION_CI REUNION_RMW REUNION_R34_NE REUNION_R34_SE REUNION_R34_SW REUNION_R34_NW REUNION_R50_NE REUNION_R50_SE REUNION_R50_SW REUNION_R50_NW REUNION_R64_NE REUNION_R64_SE REUNION_R64_SW REUNION_R64_NW BOM_LAT BOM_LON BOM_TYPE BOM_WIND BOM_PRES BOM_TNUM BOM_CI BOM_RMW BOM_R34_NE BOM_R34_SE BOM_R34_SW BOM_R34_NW BOM_R50_NE BOM_R50_SE BOM_R50_SW BOM_R50_NW BOM_R64_NE BOM_R64_SE BOM_R64_SW BOM_R64_NW BOM_ROCI BOM_POCI BOM_EYE BOM_POS_METHOD BOM_PRES_METHOD NADI_LAT NADI_LON NADI_CAT NADI_WIND NADI_PRES WELLINGTON_LAT WELLINGTON_LON WELLINGTON_WIND WELLINGTON_PRES DS824_LAT DS824_LON DS824_STAGE DS824_WIND DS824_PRES TD9636_LAT TD9636_LON TD9636_STAGE TD9636_WIND TD9636_PRES TD9635_LAT TD9635_LON TD9635_WIND TD9635_PRES TD9635_ROCI NEUMANN_LAT NEUMANN_LON NEUMANN_CLASS NEUMANN_WIND NEUMANN_PRES MLC_LAT MLC_LON MLC_CLASS MLC_WIND MLC_PRES USA_GUST BOM_GUST BOM_GUST_PER REUNION_GUST REUNION_GUST_PER USA_SEAHGT USA_SEARAD_NE USA_SEARAD_SE USA_SEARAD_SW USA_SEARAD_NW STORM_SPEED STORM_DIR
1915212N22143 1915 22 WP MM NOT_NAMED 1915-07-31 10:00:00 NR 22.1000 142.600 main 1426 1426 __________O___ -1 22.1000 142.600 7 2 108
1915212N22143 1915 22 WP MM NOT_NAMED 1915-07-31 12:00:00 NR 22.0827 142.667 main 1431 1431 __________P___ -1 22.0827 142.667 7 1 96
1915212N22143 1915 22 WP MM NOT_NAMED 1915-07-31 15:00:00 NR 22.0883 142.729 main 1431 1421 __________P___ -1 22.0883 142.729 7 1 0
1915212N22143 1915 22 WP MM NOT_NAMED 1915-07-31 18:00:00 NR 22.1748 142.696 main 1421 1392 __________P___ -1 22.1748 142.696 7 4 326
1915212N22143 1915 22 WP MM NOT_NAMED 1915-07-31 21:00:00 NR 22.3909 142.507 main 1392 1377 __________P___ -1 22.3909 142.507 7 6 320
1915212N22143 1915 22 WP MM NOT_NAMED 1915-07-31 22:00:00 NR 22.5000 142.400 main 1377 1333 __________O___ -1 22.5000 142.400 7 11 317
1915212N22143 1915 22 WP MM NOT_NAMED 1915-08-01 00:00:00 NR 22.7794 142.113 main 1333 1257 __________P___ -1 22.7794 142.113 7 14 316
1915212N22143 1915 22 WP MM NOT_NAMED 1915-08-01 03:00:00 NR 23.3238 141.548 main 1257 1160 __________P___ -1 23.3238 141.548 7 16 317
1915212N22143 1915 22 WP MM NOT_NAMED 1915-08-01 06:00:00 NR 23.9705 140.906 main 1160 1064 __________P___ -1 23.9705 140.906 7 18 319
1915212N22143 1915 22 WP MM NOT_NAMED 1915-08-01 09:00:00 NR 24.6662 140.285 main 1064 1036 __________P___ -1 24.6662 140.285 7 18 322
1915212N22143 1915 22 WP MM NOT_NAMED 1915-08-01 10:00:00 NR 24.9000 140.100 main 1036 972 __________O___ -1 24.9000 140.100 3 17 328
1915212N22143 1915 22 WP MM NOT_NAMED 1915-08-01 12:00:00 NR 25.3662 139.802 main 972 885 __________P___ -1 25.3662 139.802 3 16 333
1915212N22143 1915 22 WP MM NOT_NAMED 1915-08-01 15:00:00 NR 26.0860 139.419 main 885 801 __________P___ -1 26.0860 139.419 3 16 336
1915212N22143 1915 22 WP MM NOT_NAMED 1915-08-01 18:00:00 NR 26.7856 139.108 main 801 732 __________P___ -1 26.7856 139.108 3 14 340
1915212N22143 1915 22 WP MM NOT_NAMED 1915-08-01 21:00:00 NR 27.4147 138.866 main 732 707 __________P___ -1 27.4147 138.866 3 13 341
1915212N22143 1915 22 WP MM NOT_NAMED 1915-08-01 22:00:00 NR 27.6000 138.800 main 707 673 __________O___ -1 27.6000 138.800 4 11 343
1915212N22143 1915 22 WP MM NOT_NAMED 1915-08-02 00:00:00 NR 27.9201 138.696 main 673 628 __________P___ -1 27.9201 138.696 4 9 346
1915212N22143 1915 22 WP MM NOT_NAMED 1915-08-02 03:00:00 NR 28.3190 138.598 main 628 593 __________P___ -1 28.3190 138.598 4 7 349
1915212N22143 1915 22 WP MM NOT_NAMED 1915-08-02 06:00:00 NR 28.6426 138.529 main 593 559 __________P___ -1 28.6426 138.529 4 6 347
1915212N22143 1915 22 WP MM NOT_NAMED 1915-08-02 09:00:00 NR 28.9158 138.442 main 559 549 __________P___ -1 28.9158 138.442 4 6 342
1915212N22143 1915 22 WP MM NOT_NAMED 1915-08-02 10:00:00 NR 29.0000 138.400 main 549 525 __________O___ -1 29.0000 138.400 4 7 336
1915212N22143 1915 22 WP MM NOT_NAMED 1915-08-02 12:00:00 NR 29.2336 138.279 main 525 476 __________P___ -1 29.2336 138.279 4 8 332
1915212N22143 1915 22 WP MM NOT_NAMED 1915-08-02 15:00:00 NR 29.5536 138.060 main 476 443 __________P___ -1 29.5536 138.060 4 7 323
1915212N22143 1915 22 WP MM NOT_NAMED 1915-08-02 18:00:00 NR 29.7928 137.800 main 443 422 __________P___ -1 29.7928 137.800 4 6 306
1915212N22143 1915 22 WP MM NOT_NAMED 1915-08-02 21:00:00 NR 29.9014 137.505 main 422 418 __________P___ -1 29.9014 137.505 4 5 287
1915212N22143 1915 22 WP MM NOT_NAMED 1915-08-02 22:00:00 NR 29.9000 137.400 main 418 412 __________O___ -1 29.9000 137.400 4 6 254
1915212N22143 1915 22 WP MM NOT_NAMED 1915-08-03 00:00:00 NR 29.8227 137.183 main 422 419 __________P___ -1 29.8227 137.183 4 7 237
1915212N22143 1915 22 WP MM NOT_NAMED 1915-08-03 03:00:00 NR 29.5742 136.833 main 434 434 __________P___ -1 29.5742 136.833 4 9 226
1915212N22143 1915 22 WP MM NOT_NAMED 1915-08-03 06:00:00 NR 29.2222 136.471 main 473 471 __________P___ -1 29.2222 136.471 4 10 220
1915212N22143 1915 22 WP MM NOT_NAMED 1915-08-03 09:00:00 NR 28.8292 136.114 main 513 513 __________P___ -1 28.8292 136.114 4 10 218
1915212N22143 1915 22 WP MM NOT_NAMED 1915-08-03 10:00:00 NR 28.7000 136.000 main 524 524 __________O___ -1 28.7000 136.000 4 10 216
1915212N22143 1915 22 WP MM NOT_NAMED 1915-08-03 12:00:00 NR 28.4362 135.793 main 539 532 __________P___ -1 28.4362 135.793 4 10 214
1915212N22143 1915 22 WP MM NOT_NAMED 1915-08-03 15:00:00 NR 28.0334 135.496 main 547 541 __________P___ -1 28.0334 135.496 4 9 215
1915212N22143 1915 22 WP MM NOT_NAMED 1915-08-03 18:00:00 NR 27.6802 135.203 main 552 551 __________P___ -1 27.6802 135.203 4 8 222
1915212N22143 1915 22 WP MM NOT_NAMED 1915-08-03 21:00:00 NR 27.4423 134.904 main 560 554 __________P___ -1 27.4423 134.904 4 7 232
1915212N22143 1915 22 WP MM NOT_NAMED 1915-08-03 22:00:00 NR 27.4000 134.800 main 554 537 __________O___ -1 27.4000 134.800 4 7 258
1915212N22143 1915 22 WP MM NOT_NAMED 1915-08-04 00:00:00 NR 27.3741 134.538 main 537 507 __________P___ -1 27.3741 134.538 4 7 276
1915212N22143 1915 22 WP MM NOT_NAMED 1915-08-04 03:00:00 NR 27.4605 134.130 main 507 473 __________P___ -1 27.4605 134.130 4 8 293
1915212N22143 1915 22 WP MM NOT_NAMED 1915-08-04 06:00:00 NR 27.6719 133.754 main 473 430 __________P___ -1 27.6719 133.754 4 8 311
1915212N22143 1915 22 WP MM NOT_NAMED 1915-08-04 09:00:00 NR 27.9804 133.466 main 430 415 __________P___ -1 27.9804 133.466 4 8 324
1915212N22143 1915 22 WP MM NOT_NAMED 1915-08-04 10:00:00 NR 28.1000 133.400 main 415 381 __________O___ -1 28.1000 133.400 4 8 341
1915212N22143 1915 22 WP MM NOT_NAMED 1915-08-04 12:00:00 NR 28.3589 133.320 main 381 342 __________P___ -1 28.3589 133.320 4 8 354
1915212N22143 1915 22 WP MM NOT_NAMED 1915-08-04 15:00:00 NR 28.7880 133.311 main 342 302 __________P___ -1 28.7880 133.311 4 9 4
1915212N22143 1915 22 WP MM NOT_NAMED 1915-08-04 18:00:00 NR 29.2523 133.400 main 302 276 __________P___ -1 29.2523 133.400 4 10 12
1915212N22143 1915 22 WP MM NOT_NAMED 1915-08-04 21:00:00 NR 29.7367 133.546 main 276 268 __________P___ -1 29.7367 133.546 4 10 15
1915212N22143 1915 22 WP MM NOT_NAMED 1915-08-04 22:00:00 NR 29.9000 133.600 main 268 __________O___ -1 29.9000 133.600 7 10 13

Digital Typhoon Data and Search

About IBTrACS Database

This database is a web-friendly format of International Best Track Archive for Climate Stewardship (IBTrACS), a global best track data archive curated by NOAA dating back to 1842.

Updated: 2021-10-25